createdAt,value
2023-02-24T00:00:32.077Z,10.49
2023-02-24T00:03:05.805Z,10.27
2023-02-24T00:05:39.225Z,10.14
2023-02-24T00:08:07.132Z,10.49
2023-02-24T00:10:37.533Z,10.56
2023-02-24T00:13:07.570Z,10.70
2023-02-24T00:15:35.452Z,10.45
2023-02-24T00:18:07.116Z,10.60
2023-02-24T00:20:35.719Z,10.02
2023-02-24T00:23:03.951Z,10.16
2023-02-24T00:25:31.875Z,10.32
2023-02-24T00:28:01.698Z,10.23
2023-02-24T00:30:33.032Z,10.43
2023-02-24T00:33:03.350Z,10.24
2023-02-24T00:35:32.173Z,10.43
2023-02-24T00:38:00.904Z,10.37
2023-02-24T00:40:30.731Z,10.34
2023-02-24T00:43:00.644Z,10.32
2023-02-24T00:45:30.874Z,10.27
2023-02-24T00:48:00.235Z,9.65
2023-02-24T00:50:28.160Z,9.39
2023-02-24T00:52:56.278Z,9.38
2023-02-24T00:55:24.431Z,9.34
2023-02-24T00:57:53.840Z,9.18
2023-02-24T01:00:23.452Z,9.23
2023-02-24T01:02:51.381Z,9.29
2023-02-24T01:05:21.211Z,8.97
2023-02-24T01:07:49.108Z,9.24
2023-02-24T01:10:18.286Z,9.28
2023-02-24T01:12:51.037Z,9.04
2023-02-24T01:15:22.898Z,9.39
2023-02-24T01:17:50.867Z,9.62
2023-02-24T01:20:20.281Z,9.47
2023-02-24T01:22:50.125Z,9.43
2023-02-24T01:25:20.193Z,8.99
2023-02-24T01:27:48.112Z,9.39
2023-02-24T01:30:17.612Z,9.46
2023-02-24T01:32:47.330Z,9.33
2023-02-24T01:35:15.916Z,8.99
2023-02-24T01:37:45.597Z,8.77
2023-02-24T01:40:21.030Z,8.97
2023-02-24T01:42:49.382Z,9.15
2023-02-24T01:45:25.064Z,8.92
2023-02-24T01:47:54.982Z,8.63
2023-02-24T01:50:26.221Z,8.50
2023-02-24T01:52:58.796Z,8.46
2023-02-24T01:55:32.307Z,8.74
2023-02-24T01:58:04.933Z,8.57
2023-02-24T02:00:38.983Z,8.08
2023-02-24T02:03:13.156Z,8.38
2023-02-24T02:05:45.199Z,8.56
2023-02-24T02:08:15.469Z,8.59
2023-02-24T02:10:45.242Z,8.60
2023-02-24T02:13:14.945Z,8.65
2023-02-24T02:15:56.787Z,8.32
2023-02-24T02:18:38.271Z,8.54
2023-02-24T02:21:51.495Z,8.52
2023-02-24T02:24:28.360Z,8.36
2023-02-24T02:27:36.915Z,8.56
2023-02-24T02:30:45.834Z,8.41
2023-02-24T02:33:39.486Z,8.42
2023-02-24T02:36:17.659Z,7.95
2023-02-24T02:38:54.538Z,8.15
2023-02-24T02:41:28.878Z,7.97
2023-02-24T02:44:07.482Z,7.82
2023-02-24T02:46:43.065Z,7.51
2023-02-24T02:49:18.943Z,7.47
2023-02-24T02:51:52.715Z,7.59
2023-02-24T02:54:29.735Z,7.63
2023-02-24T02:57:03.258Z,7.50
2023-02-24T02:59:35.074Z,7.96
2023-02-24T03:02:14.891Z,7.93
2023-02-24T03:04:48.608Z,8.06
2023-02-24T03:07:19.973Z,7.83
2023-02-24T03:09:56.241Z,7.64
2023-02-24T03:12:26.675Z,7.92
2023-02-24T03:14:59.447Z,7.70
2023-02-24T03:17:31.580Z,7.78
2023-02-24T03:20:15.543Z,7.80
2023-02-24T03:22:51.962Z,7.89
2023-02-24T03:25:24.671Z,7.77
2023-02-24T03:27:57.053Z,7.71
2023-02-24T03:30:30.318Z,7.88
2023-02-24T03:33:03.573Z,7.78
2023-02-24T03:35:38.165Z,7.58
2023-02-24T03:38:10.201Z,7.80
2023-02-24T03:40:39.255Z,7.84
2023-02-24T03:43:16.995Z,7.91
2023-02-24T03:45:46.663Z,7.86
2023-02-24T03:48:16.020Z,7.63
2023-02-24T03:50:46.811Z,7.79
2023-02-24T03:53:54.506Z,7.66
2023-02-24T03:56:29.966Z,7.46
2023-02-24T03:59:13.436Z,7.54
2023-02-24T04:01:51.956Z,7.58
2023-02-24T04:04:33.203Z,7.68
2023-02-24T04:07:16.267Z,7.82
2023-02-24T04:09:51.167Z,7.90
2023-02-24T04:12:26.709Z,7.99
2023-02-24T04:15:08.083Z,7.59
2023-02-24T04:17:43.112Z,7.66
2023-02-24T04:20:16.736Z,7.74
2023-02-24T04:22:54.916Z,7.46
2023-02-24T04:25:26.743Z,7.66
2023-02-24T04:27:59.288Z,7.41
2023-02-24T04:30:32.076Z,7.54
2023-02-24T04:33:00.227Z,7.47
2023-02-24T04:35:29.052Z,7.66
2023-02-24T04:37:57.949Z,7.31
2023-02-24T04:40:27.843Z,7.57
2023-02-24T04:42:55.989Z,7.17
2023-02-24T04:45:26.161Z,7.31
2023-02-24T04:48:01.033Z,7.25
2023-02-24T04:50:31.023Z,7.41
2023-02-24T04:53:01.603Z,7.32
2023-02-24T04:55:33.243Z,7.64
2023-02-24T04:58:02.314Z,7.61
2023-02-24T05:00:35.309Z,7.45
2023-02-24T05:03:04.640Z,7.77
2023-02-24T05:05:34.286Z,7.43
2023-02-24T05:08:04.175Z,7.63
2023-02-24T05:10:38.871Z,7.52
2023-02-24T05:13:07.804Z,7.55
2023-02-24T05:15:40.683Z,7.68
2023-02-24T05:18:14.099Z,7.66
2023-02-24T05:21:01.949Z,7.49
2023-02-24T05:23:31.857Z,7.55
2023-02-24T05:26:02.477Z,7.73
2023-02-24T05:28:31.799Z,7.65
2023-02-24T05:31:08.414Z,7.48
2023-02-24T05:33:37.740Z,7.54
2023-02-24T05:36:08.550Z,7.40
2023-02-24T05:38:38.126Z,7.68
2023-02-24T05:41:08.953Z,7.67
2023-02-24T05:43:41.652Z,7.48
2023-02-24T05:46:09.610Z,7.76
2023-02-24T05:48:37.991Z,7.53
2023-02-24T05:51:08.223Z,7.50
2023-02-24T05:53:36.352Z,7.46
2023-02-24T05:56:05.981Z,7.58
2023-02-24T05:58:36.464Z,7.40
2023-02-24T06:01:16.167Z,7.57
2023-02-24T06:03:47.900Z,7.60
2023-02-24T06:06:16.426Z,7.68
2023-02-24T06:08:50.020Z,7.45
2023-02-24T06:11:19.079Z,7.49
2023-02-24T06:13:49.019Z,7.43
2023-02-24T06:16:18.825Z,7.49
2023-02-24T06:18:49.876Z,7.45
2023-02-24T06:21:17.926Z,7.43
2023-02-24T06:23:46.280Z,7.58
2023-02-24T06:26:19.253Z,7.45
2023-02-24T06:28:49.907Z,7.37
2023-02-24T06:31:18.069Z,7.63
2023-02-24T06:33:45.999Z,7.45
2023-02-24T06:36:14.674Z,7.32
2023-02-24T06:38:43.236Z,7.34
2023-02-24T06:41:11.899Z,7.70
2023-02-24T06:43:40.572Z,7.64
2023-02-24T06:46:11.047Z,7.53
2023-02-24T06:48:39.221Z,7.64
2023-02-24T06:51:08.561Z,7.64
2023-02-24T06:53:36.514Z,7.77
2023-02-24T06:56:14.854Z,8.03
2023-02-24T06:58:45.058Z,7.86
2023-02-24T07:01:16.015Z,7.79
2023-02-24T07:04:02.643Z,7.90
2023-02-24T07:06:32.044Z,7.66
2023-02-24T07:09:00.497Z,7.75
2023-02-24T07:11:29.972Z,7.65
2023-02-24T07:13:59.212Z,7.89
2023-02-24T07:16:30.623Z,7.88
2023-02-24T07:19:02.631Z,8.00
2023-02-24T07:21:39.511Z,7.91
2023-02-24T07:24:08.994Z,7.85
2023-02-24T07:26:41.587Z,7.78
2023-02-24T07:29:11.418Z,7.61
2023-02-24T07:31:42.957Z,7.60
2023-02-24T07:34:15.091Z,7.91
2023-02-24T07:36:49.297Z,8.04
2023-02-24T07:39:18.355Z,7.66
2023-02-24T07:41:49.515Z,7.29
2023-02-24T07:44:19.121Z,7.47
2023-02-24T07:46:49.339Z,7.59
2023-02-24T07:49:20.073Z,8.05
2023-02-24T07:51:52.481Z,7.95
2023-02-24T07:54:21.146Z,7.76
2023-02-24T07:56:56.726Z,7.72
2023-02-24T07:59:27.417Z,7.56
2023-02-24T08:01:57.386Z,8.03
2023-02-24T08:04:27.626Z,7.94
2023-02-24T08:07:12.560Z,8.12
2023-02-24T08:10:03.261Z,7.85
2023-02-24T08:12:31.177Z,8.11
2023-02-24T08:15:00.222Z,8.28
2023-02-24T08:17:29.533Z,8.13
2023-02-24T08:20:21.922Z,8.24
2023-02-24T08:22:53.373Z,8.04
2023-02-24T08:25:23.053Z,8.31
2023-02-24T08:28:12.257Z,8.07
2023-02-24T08:30:45.615Z,7.97
2023-02-24T08:33:20.321Z,8.53
2023-02-24T08:35:53.005Z,8.48
2023-02-24T08:38:25.904Z,8.38
2023-02-24T08:40:55.581Z,8.34
2023-02-24T08:43:32.996Z,8.70
2023-02-24T08:46:04.675Z,8.71
2023-02-24T08:48:42.150Z,8.70
2023-02-24T08:51:15.048Z,8.55
2023-02-24T08:53:43.762Z,8.89
2023-02-24T08:56:13.784Z,9.20
2023-02-24T08:58:47.291Z,8.67
2023-02-24T09:01:20.531Z,8.69
2023-02-24T09:03:50.978Z,8.60
2023-02-24T09:06:25.428Z,8.71
2023-02-24T09:09:17.159Z,8.59
2023-02-24T09:11:46.697Z,8.43
2023-02-24T09:14:27.293Z,8.60
2023-02-24T09:17:03.194Z,8.64
2023-02-24T09:19:54.820Z,8.76
2023-02-24T09:22:32.460Z,8.93
2023-02-24T09:25:23.963Z,8.61
2023-02-24T09:27:55.275Z,8.75
2023-02-24T09:30:39.011Z,8.75
2023-02-24T09:33:08.908Z,8.65
2023-02-24T09:35:41.863Z,8.58
2023-02-24T09:38:09.853Z,8.74
2023-02-24T09:40:48.778Z,9.10
2023-02-24T09:43:21.111Z,8.32
2023-02-24T09:46:14.343Z,8.68
2023-02-24T09:48:51.490Z,8.33
2023-02-24T09:51:28.820Z,8.72
2023-02-24T09:54:01.936Z,8.89
2023-02-24T09:56:37.324Z,8.90
2023-02-24T09:59:13.690Z,9.07
2023-02-24T10:01:46.774Z,9.05
2023-02-24T10:04:31.568Z,9.13
2023-02-24T10:07:06.255Z,8.72
2023-02-24T10:09:38.536Z,8.87
2023-02-24T10:12:11.720Z,8.67
2023-02-24T10:14:44.669Z,8.92
2023-02-24T10:17:24.353Z,8.62
2023-02-24T10:20:00.149Z,9.13
2023-02-24T10:22:51.508Z,8.95
2023-02-24T10:25:36.146Z,8.99
2023-02-24T10:28:16.969Z,9.11
2023-02-24T10:31:01.634Z,9.02
2023-02-24T10:33:38.785Z,9.08
2023-02-24T10:36:12.580Z,8.72
2023-02-24T10:38:45.375Z,8.89
2023-02-24T10:41:14.695Z,8.99
2023-02-24T10:43:53.934Z,8.87
2023-02-24T10:46:41.136Z,9.29
2023-02-24T10:49:16.518Z,9.18
2023-02-24T10:51:52.345Z,9.44
2023-02-24T10:55:05.120Z,8.78
2023-02-24T10:57:44.737Z,8.65
2023-02-24T11:00:32.585Z,9.00
2023-02-24T11:03:10.550Z,8.89
2023-02-24T11:05:44.279Z,8.88
2023-02-24T11:08:32.899Z,8.88
2023-02-24T11:11:07.332Z,8.17
2023-02-24T11:13:55.098Z,8.17
2023-02-24T11:16:40.357Z,7.98
2023-02-24T11:19:08.969Z,8.17
2023-02-24T11:21:38.756Z,7.86
2023-02-24T11:24:07.778Z,8.11
2023-02-24T11:26:41.788Z,8.19
2023-02-24T11:29:32.603Z,7.95
2023-02-24T11:32:16.952Z,7.76
2023-02-24T11:34:52.020Z,7.83
2023-02-24T11:37:36.040Z,7.46
2023-02-24T11:40:09.853Z,7.08
2023-02-24T11:42:46.240Z,7.05
2023-02-24T11:45:26.256Z,7.29
2023-02-24T11:47:58.478Z,7.45
2023-02-24T11:50:43.630Z,7.25
2023-02-24T11:53:23.837Z,7.34
2023-02-24T11:55:59.230Z,7.58
2023-02-24T11:58:36.643Z,7.32
2023-02-24T12:01:16.027Z,7.15
2023-02-24T12:03:56.216Z,7.32
2023-02-24T12:06:31.321Z,7.19
2023-02-24T12:09:07.747Z,7.42
2023-02-24T12:11:41.653Z,6.97
2023-02-24T12:14:23.431Z,7.20
2023-02-24T12:16:57.931Z,7.16
2023-02-24T12:19:31.636Z,7.37
2023-02-24T12:22:05.853Z,6.79
2023-02-24T12:24:37.388Z,6.65
2023-02-24T12:27:18.374Z,7.21
2023-02-24T12:30:06.373Z,6.71
2023-02-24T12:33:01.762Z,6.78
2023-02-24T12:35:39.960Z,7.04
2023-02-24T12:38:22.136Z,6.84
2023-02-24T12:40:56.904Z,6.61
2023-02-24T12:43:31.581Z,7.09
2023-02-24T12:46:07.125Z,6.50
2023-02-24T12:48:59.782Z,7.07
2023-02-24T12:51:35.160Z,6.51
2023-02-24T12:54:10.394Z,6.92
2023-02-24T12:56:47.834Z,6.31
2023-02-24T12:59:21.276Z,6.93
2023-02-24T13:02:02.343Z,6.90
2023-02-24T13:04:47.782Z,6.97
2023-02-24T13:07:33.781Z,6.73
2023-02-24T13:10:11.103Z,6.45
2023-02-24T13:12:43.777Z,6.59
2023-02-24T13:15:20.780Z,6.39
2023-02-24T13:17:52.099Z,6.62
2023-02-24T13:20:32.597Z,6.85
2023-02-24T13:23:03.507Z,6.91
2023-02-24T13:25:35.050Z,6.79
2023-02-24T13:28:05.402Z,6.55
2023-02-24T13:30:39.167Z,6.73
2023-02-24T13:33:29.254Z,6.68
2023-02-24T13:36:12.688Z,6.75
2023-02-24T13:38:42.939Z,6.78
2023-02-24T13:41:23.861Z,6.99
2023-02-24T13:43:57.939Z,6.97
2023-02-24T13:46:29.863Z,6.83
2023-02-24T13:49:33.050Z,6.67
2023-02-24T13:52:04.904Z,6.57
2023-02-24T13:55:11.030Z,6.70
2023-02-24T13:57:49.930Z,6.74
2023-02-24T14:00:29.012Z,6.69
2023-02-24T14:02:58.139Z,6.58
2023-02-24T14:05:31.138Z,6.97
2023-02-24T14:07:59.842Z,6.55
2023-02-24T14:10:29.707Z,6.78
2023-02-24T14:13:07.482Z,6.95
2023-02-24T14:15:36.175Z,6.78
2023-02-24T14:18:06.682Z,6.54
2023-02-24T14:20:37.986Z,6.76
2023-02-24T14:23:23.147Z,6.84
2023-02-24T14:25:56.713Z,6.81
2023-02-24T14:28:28.091Z,7.04
2023-02-24T14:30:58.979Z,6.82
2023-02-24T14:33:31.254Z,6.70
2023-02-24T14:36:01.696Z,6.86
2023-02-24T14:38:35.665Z,6.90
2023-02-24T14:41:05.822Z,6.66
2023-02-24T14:43:33.890Z,6.62
2023-02-24T14:46:07.042Z,6.88
2023-02-24T14:48:34.784Z,6.77
2023-02-24T14:51:08.741Z,7.05
2023-02-24T14:53:41.550Z,6.92
2023-02-24T14:56:13.134Z,7.06
2023-02-24T14:58:45.397Z,6.85
2023-02-24T15:01:24.038Z,6.88
2023-02-24T15:03:55.926Z,7.04
2023-02-24T15:06:28.438Z,7.20
2023-02-24T15:09:00.184Z,7.11
2023-02-24T15:11:30.095Z,6.86
2023-02-24T15:14:00.907Z,7.08
2023-02-24T15:16:34.381Z,7.17
2023-02-24T15:19:02.387Z,7.03
2023-02-24T15:21:34.061Z,6.82
2023-02-24T15:24:02.558Z,6.96
2023-02-24T15:26:32.745Z,6.79
2023-02-24T15:29:03.270Z,6.81
2023-02-24T15:31:31.730Z,6.94
2023-02-24T15:34:01.734Z,6.96
2023-02-24T15:36:34.744Z,6.95
2023-02-24T15:39:06.567Z,6.87
2023-02-24T15:41:45.506Z,6.83
2023-02-24T15:44:27.790Z,6.72
2023-02-24T15:46:56.176Z,6.76
2023-02-24T15:49:24.087Z,6.54
2023-02-24T15:51:54.332Z,6.75
2023-02-24T15:54:30.235Z,6.89
2023-02-24T15:57:00.397Z,6.92
2023-02-24T15:59:29.197Z,7.01
2023-02-24T16:01:57.482Z,6.73
2023-02-24T16:04:27.529Z,6.71
2023-02-24T16:06:58.657Z,6.89
2023-02-24T16:09:33.601Z,6.69
2023-02-24T16:12:04.486Z,6.57
2023-02-24T16:14:33.444Z,6.80
2023-02-24T16:17:09.936Z,6.79
2023-02-24T16:19:38.234Z,6.70
2023-02-24T16:22:07.456Z,6.76
2023-02-24T16:24:35.273Z,6.87
2023-02-24T16:27:03.249Z,6.88
2023-02-24T16:29:31.525Z,6.93
2023-02-24T16:31:59.690Z,6.96
2023-02-24T16:34:27.677Z,7.04
2023-02-24T16:36:55.505Z,6.98
2023-02-24T16:39:24.924Z,6.93
2023-02-24T16:41:53.592Z,6.97
2023-02-24T16:44:23.200Z,7.09
2023-02-24T16:46:51.117Z,7.00
2023-02-24T16:49:21.053Z,7.07
2023-02-24T16:51:48.982Z,6.86
2023-02-24T16:54:17.040Z,6.94
2023-02-24T16:56:46.704Z,6.70
2023-02-24T16:59:14.635Z,6.86
2023-02-24T17:01:43.304Z,6.94
2023-02-24T17:04:13.462Z,6.73
2023-02-24T17:06:41.582Z,6.56
2023-02-24T17:09:09.475Z,6.73
2023-02-24T17:11:37.360Z,6.84
2023-02-24T17:14:06.697Z,6.78
2023-02-24T17:16:34.655Z,6.92
2023-02-24T17:19:02.636Z,6.52
2023-02-24T17:21:30.530Z,7.03
2023-02-24T17:23:58.377Z,6.34
2023-02-24T17:26:26.380Z,6.74
2023-02-24T17:28:54.228Z,6.92
2023-02-24T17:31:24.061Z,7.14
2023-02-24T17:33:52.059Z,6.85
2023-02-24T17:36:20.121Z,7.05
2023-02-24T17:38:48.121Z,7.03
2023-02-24T17:41:16.017Z,6.98
2023-02-24T17:43:43.890Z,7.17
2023-02-24T17:46:11.778Z,6.82
2023-02-24T17:48:41.042Z,6.83
2023-02-24T17:51:09.124Z,6.67
2023-02-24T17:53:37.013Z,7.12
2023-02-24T17:56:05.649Z,6.93
2023-02-24T17:58:34.356Z,6.57
2023-02-24T18:01:03.282Z,6.83
2023-02-24T18:03:31.987Z,7.00
2023-02-24T18:06:03.025Z,7.00
2023-02-24T18:08:32.870Z,7.08
2023-02-24T18:11:00.953Z,6.69
2023-02-24T18:13:30.063Z,6.85
2023-02-24T18:15:58.199Z,6.95
2023-02-24T18:18:26.928Z,6.83
2023-02-24T18:20:58.622Z,7.02
2023-02-24T18:23:27.851Z,7.36
2023-02-24T18:25:55.692Z,7.31
2023-02-24T18:28:23.601Z,7.05
2023-02-24T18:30:51.598Z,6.97
2023-02-24T18:33:19.853Z,6.92
2023-02-24T18:35:47.908Z,7.11
2023-02-24T18:38:17.640Z,6.75
2023-02-24T18:40:46.895Z,6.73
2023-02-24T18:43:14.748Z,7.04
2023-02-24T18:45:42.557Z,6.99
2023-02-24T18:48:10.434Z,7.16
2023-02-24T18:50:38.312Z,7.04
2023-02-24T18:53:06.258Z,7.45
2023-02-24T18:55:36.047Z,7.43
2023-02-24T18:58:05.260Z,7.39
2023-02-24T19:00:33.120Z,7.46
2023-02-24T19:03:01.029Z,7.31
2023-02-24T19:05:37.896Z,7.35
2023-02-24T19:08:06.556Z,7.26
2023-02-24T19:10:34.571Z,7.20
2023-02-24T19:13:02.399Z,7.37
2023-02-24T19:15:31.728Z,7.06
2023-02-24T19:18:01.058Z,7.26
2023-02-24T19:20:29.098Z,6.89
2023-02-24T19:22:56.946Z,7.33
2023-02-24T19:25:24.788Z,7.27
2023-02-24T19:27:54.396Z,7.33
2023-02-24T19:30:22.440Z,7.36
2023-02-24T19:32:51.699Z,7.47
2023-02-24T19:35:19.803Z,7.40
2023-02-24T19:37:49.131Z,7.50
2023-02-24T19:40:18.238Z,7.55
2023-02-24T19:42:47.187Z,7.27
2023-02-24T19:45:15.100Z,7.05
2023-02-24T19:47:44.135Z,7.41
2023-02-24T19:50:14.721Z,7.53
2023-02-24T19:52:43.244Z,7.20
2023-02-24T19:55:12.596Z,7.34
2023-02-24T19:57:40.482Z,7.48
2023-02-24T20:00:11.543Z,7.30
2023-02-24T20:02:42.313Z,7.45
2023-02-24T20:05:10.642Z,7.45
2023-02-24T20:07:39.992Z,7.45
2023-02-24T20:10:08.747Z,7.49
2023-02-24T20:12:36.789Z,7.42
2023-02-24T20:15:04.890Z,7.53
2023-02-24T20:17:34.768Z,7.67
2023-02-24T20:20:02.633Z,7.72
2023-02-24T20:22:30.539Z,7.56
2023-02-24T20:24:59.778Z,7.59
2023-02-24T20:27:27.667Z,7.65
2023-02-24T20:29:56.965Z,7.46
2023-02-24T20:32:25.013Z,7.40
2023-02-24T20:34:53.027Z,7.38
2023-02-24T20:37:20.926Z,7.57
2023-02-24T20:39:48.862Z,7.24
2023-02-24T20:42:18.130Z,7.40
2023-02-24T20:44:46.034Z,7.37
2023-02-24T20:47:13.946Z,7.49
2023-02-24T20:49:41.927Z,7.66
2023-02-24T20:52:10.176Z,7.36
2023-02-24T20:54:38.146Z,7.45
2023-02-24T20:57:08.871Z,7.37
2023-02-24T20:59:41.583Z,7.06
2023-02-24T21:02:10.227Z,7.35
2023-02-24T21:04:38.047Z,7.46
2023-02-24T21:07:05.963Z,7.09
2023-02-24T21:09:37.102Z,7.26
2023-02-24T21:12:06.413Z,7.27
2023-02-24T21:14:34.731Z,7.31
2023-02-24T21:17:04.005Z,7.11
2023-02-24T21:19:31.875Z,7.34
2023-02-24T21:21:59.738Z,7.42
2023-02-24T21:24:27.579Z,7.40
2023-02-24T21:26:55.425Z,7.47
2023-02-24T21:29:23.340Z,7.31
2023-02-24T21:31:51.397Z,7.14
2023-02-24T21:34:20.700Z,7.47
2023-02-24T21:36:48.619Z,7.16
2023-02-24T21:39:18.003Z,7.19
2023-02-24T21:41:45.972Z,7.23
2023-02-24T21:44:15.311Z,7.52
2023-02-24T21:46:43.304Z,7.45
2023-02-24T21:49:14.291Z,7.51
2023-02-24T21:51:43.603Z,7.50
2023-02-24T21:54:12.446Z,7.57
2023-02-24T21:56:40.434Z,7.52
2023-02-24T21:59:09.898Z,7.45
2023-02-24T22:01:39.820Z,7.49
2023-02-24T22:04:10.198Z,7.61
2023-02-24T22:06:40.205Z,7.46
2023-02-24T22:09:10.761Z,7.54
2023-02-24T22:11:40.738Z,7.57
2023-02-24T22:14:09.815Z,7.88
2023-02-24T22:16:37.888Z,7.77
2023-02-24T22:19:05.962Z,7.94
2023-02-24T22:21:34.355Z,7.98
2023-02-24T22:24:04.397Z,7.73
2023-02-24T22:26:34.096Z,7.86
2023-02-24T22:29:02.402Z,7.82
2023-02-24T22:31:32.062Z,7.98
2023-02-24T22:34:00.662Z,7.65
2023-02-24T22:36:31.059Z,7.86
2023-02-24T22:39:01.163Z,7.79
2023-02-24T22:41:31.120Z,7.78
2023-02-24T22:44:01.447Z,7.79
2023-02-24T22:46:31.671Z,7.84
2023-02-24T22:48:59.841Z,7.85
2023-02-24T22:51:28.357Z,7.81
2023-02-24T22:53:57.049Z,7.74
2023-02-24T22:56:26.847Z,7.64
2023-02-24T22:58:55.293Z,7.57
2023-02-24T23:01:26.443Z,7.85
2023-02-24T23:03:54.398Z,7.64
2023-02-24T23:06:25.991Z,7.77
2023-02-24T23:08:55.400Z,7.49
2023-02-24T23:11:27.701Z,7.66
2023-02-24T23:13:57.671Z,7.92
2023-02-24T23:16:31.599Z,7.71
2023-02-24T23:19:01.463Z,7.72
2023-02-24T23:21:34.767Z,7.50
2023-02-24T23:24:03.985Z,7.84
2023-02-24T23:26:34.277Z,7.90
2023-02-24T23:29:02.617Z,7.94
2023-02-24T23:31:32.004Z,7.65
2023-02-24T23:34:02.112Z,7.73
2023-02-24T23:36:31.047Z,8.00
2023-02-24T23:38:58.968Z,7.80
2023-02-24T23:41:26.941Z,7.65
2023-02-24T23:43:54.853Z,7.72
2023-02-24T23:46:23.071Z,7.64
2023-02-24T23:48:53.809Z,7.60
2023-02-24T23:51:21.978Z,7.37
2023-02-24T23:53:50.403Z,7.48
2023-02-24T23:56:21.193Z,7.62
2023-02-24T23:58:51.688Z,7.33
